• Join FlightAware (Why Join?)
  • Login
  • US Flag 
10:22AM EST


 

Airport Tracker/Info


-or-


 

Live Flight TrackerFlight Track Log ✈ AWE1842 ✈ 13-Apr-2013 ✈ KMCO - KCLT

Flight Track Log - Related Links

Times and Time Zones

All times are in EDT time to prevent confusion due to time zone crossing. See the AWE1842 flight status page for this flight to view local times or setup timezone preferences in your user account.

Time Position Orientation Groundspeed Altitude Reporting Facility
EDT Latitude Longitude Course Direction KTS MPH feet Rate Location/Type
05:23AM 28.7300 -81.3385 354° North  Level FlightAware Approximate
05:23AM 28.5710 -81.2960 355° North 278 320 7,400  Level FlightAware
05:24AM 28.8354 -81.3502 355° North  Level FlightAware Approximate
05:24AM 28.6570 -81.3150 349° North 309 356 10,600  Level FlightAware
05:25AM 28.7230 -81.3290 349° North 369 425 11,200 1,500 Climbing FlightAware
05:25AM 28.8050 -81.3430 351° North 403 464 12,900 1,020 Climbing FlightAware
05:26AM 28.8790 -81.3560 351° North 403 464 12,900  Level FlightAware
05:27AM 28.9410 -81.3680 350° North 403 464 12,900 6,420 Level FlightAware
05:27AM 29.0406 -81.3797 350° North 402 463 20,300 6,720 Climbing Jacksonville Center
05:28AM 29.1492 -81.3922 354° North 402 463 22,900 2,280 Climbing Jacksonville Center
05:29AM 29.2639 -81.3786 North 397 457 24,900 1,860 Climbing Jacksonville Center
05:30AM 29.3825 -81.3433 15° North 404 465 26,700 1,380 Climbing Jacksonville Center
05:31AM 29.5031 -81.3153 11° North 426 490 27,700 1,020 Climbing Jacksonville Center
05:32AM 29.6361 -81.2772 14° North 458 527 28,800 1,740 Climbing Jacksonville Center
05:33AM 29.7714 -81.2439 12° North 485 558 31,200 1,860 Climbing Jacksonville Center
05:34AM 29.9256 -81.2006 14° North 505 581 32,600 900 Climbing Jacksonville Center
05:35AM 30.0628 -81.1647 13° North 510 587 33,000 180 Climbing Jacksonville Center
05:36AM 30.2022 -81.1283 13° North 505 581 33,000 660 Level Jacksonville Center
05:37AM 30.3372 -81.0900 14° North 505 581 34,400 1,500 Climbing Jacksonville Center
05:38AM 30.4744 -81.0511 14° North 505 581 36,100 1,500 Climbing Jacksonville Center
05:39AM 30.6097 -81.0172 12° North 505 581 37,500 1,200 Climbing Jacksonville Center
05:40AM 30.7469 -80.9806 13° North 505 581 38,500 180 Climbing Jacksonville Center
05:46AM 31.5810 -80.7600 13° North 529 609 39,000 60 Climbing FlightAware
05:47AM 31.7140 -80.7240 13° North 528 608 39,000  Level FlightAware
05:48AM 31.8000 -80.7000 13° North 527 606 39,000  Level FlightAware
05:49AM 31.8810 -80.6780 13° North 527 606 39,000  Level FlightAware
05:49AM 31.9820 -80.6510 13° North 527 606 39,000  Level FlightAware
05:50AM 32.0620 -80.6290 13° North 527 606 39,000  Level FlightAware
05:51AM 32.1430 -80.6070 13° North 527 606 39,000  Level FlightAware
05:51AM 32.2972 -80.5528 13° North 507 583 39,000  Level Jacksonville Center
05:52AM 32.4406 -80.5097 14° North 507 583 39,000  Level Jacksonville Center
05:53AM 32.5778 -80.4742 12° North 501 577 39,000  Level Jacksonville Center
05:54AM 32.7167 -80.4333 14° North 512 589 39,000 -120 Level Jacksonville Center
05:55AM 32.8581 -80.3950 13° North 507 583 38,800 -1,200 Descending Jacksonville Center
05:56AM 33.0053 -80.3511 14° North 517 595 36,600 -1,740 Descending Jacksonville Center
05:57AM 33.1444 -80.3225 10° North 517 595 35,400 -2,220 Descending Jacksonville Center
06:03AM 33.9700 -80.3350 10° North 457 526 21,200 -2,280 Descending FlightAware
06:04AM 33.8630 -80.3310 178° South 457 526 20,000 -900 Descending FlightAware
06:05AM 33.7910 -80.3280 178° South 457 526 20,000  Level FlightAware
06:05AM 33.7190 -80.3250 178° South 457 526 20,000  Level FlightAware
06:06AM 33.6470 -80.3220 178° South 457 526 20,000  Level FlightAware
06:07AM 33.5750 -80.3190 178° South 457 526 20,000  Level FlightAware
06:07AM 33.5030 -80.3160 178° South 457 526 20,000 -7,980 Level FlightAware
06:08AM 34.4619 -80.3381 178° South 407 468 12,700 -13,200 Descending FAA TRACON SMA TRACON (SMA)
06:08AM 34.5044 -80.3392 359° North 403 464 12,100 -1,500 Descending FAA TRACON SMA TRACON (SMA)
06:09AM 34.5706 -80.3408 359° North 388 447 11,200 -1,140 Descending FAA TRACON SMA TRACON (SMA)
06:09AM 34.6039 -80.3406 360° North 393 452 11,000 -300 Descending FAA TRACON SMA TRACON (SMA)
06:09AM 34.6439 -80.3397 North 379 436 11,000  Level FAA TRACON SMA TRACON (SMA)
06:10AM 34.6733 -80.3392 North 342 394 11,000  Level FAA TRACON SMA TRACON (SMA)
06:10AM 34.6997 -80.3467 347° North 324 373 11,000  Level FAA TRACON SMA TRACON (SMA)
06:10AM 34.7250 -80.3675 326° Northwest 277 319 11,000  Level FAA TRACON SMA TRACON (SMA)
06:11AM 34.7414 -80.3878 315° West 270 311 11,000  Level FAA TRACON SMA TRACON (SMA)
06:11AM 34.7581 -80.4083 315° West 276 318 11,000  Level FAA TRACON SMA TRACON (SMA)
06:11AM 34.7778 -80.4344 313° West 273 314 11,000  Level FAA TRACON SMA TRACON (SMA)
06:12AM 34.7942 -80.4544 315° West 273 314 11,000  Level FAA TRACON SMA TRACON (SMA)
06:12AM 34.8147 -80.4797 315° West 272 313 11,000  Level FAA TRACON SMA TRACON (SMA)
06:12AM 34.8308 -80.5000 314° West 272 313 11,000  Level FAA TRACON SMA TRACON (SMA)
06:13AM 34.8475 -80.5200 315° West 272 313 11,000  Level FAA TRACON SMA TRACON (SMA)
06:13AM 34.8675 -80.5453 314° West 271 312 11,000  Level FAA TRACON SMA TRACON (SMA)
06:13AM 34.8839 -80.5653 315° West 271 312 11,000  Level FAA TRACON SMA TRACON (SMA)
06:14AM 34.8997 -80.5861 313° West 271 312 11,000 -600 Level FAA TRACON SMA TRACON (SMA)
06:14AM 34.9161 -80.6061 315° West 271 312 10,600 -1,440 Descending FAA TRACON SMA TRACON (SMA)
06:14AM 34.9361 -80.6314 314° West 270 311 10,100 -1,380 Descending FAA TRACON SMA TRACON (SMA)
06:15AM 34.9519 -80.6517 314° West 269 310 9,700 -1,080 Descending FAA TRACON SMA TRACON (SMA)
06:15AM 34.9664 -80.6686 316° Northwest 269 310 9,400 -900 Descending FAA TRACON SMA TRACON (SMA)
06:15AM 34.9881 -80.6961 314° West 266 306 9,100 -600 Descending FAA TRACON SMA TRACON (SMA)
06:16AM 35.0036 -80.7153 315° West 261 300 9,000 -180 Descending FAA TRACON SMA TRACON (SMA)
06:16AM 35.0186 -80.7339 315° West 257 296 9,000  Level FAA TRACON SMA TRACON (SMA)
06:16AM 35.0378 -80.7578 314° West 254 292 9,000  Level FAA TRACON SMA TRACON (SMA)
06:17AM 35.0508 -80.7739 315° West 254 292 9,000  Level FAA TRACON SMA TRACON (SMA)
06:17AM 35.0717 -80.7989 316° Northwest 247 284 9,000  Level FAA TRACON SMA TRACON (SMA)
06:17AM 35.0892 -80.8089 335° Northwest 238 274 9,000  Level FAA TRACON SMA TRACON (SMA)
06:18AM 35.1092 -80.8117 354° North 243 280 9,000  Level FAA TRACON SMA TRACON (SMA)
06:18AM 35.1344 -80.8144 355° North 242 278 9,000 -180 Level FAA TRACON SMA TRACON (SMA)
06:18AM 35.1542 -80.8172 353° North 236 272 8,900 -600 Descending FAA TRACON SMA TRACON (SMA)
06:19AM 35.1742 -80.8200 354° North 235 270 8,600 -1,200 Descending FAA TRACON SMA TRACON (SMA)
06:19AM 35.1992 -80.8139 11° North 242 278 8,100 -1,380 Descending FAA TRACON SMA TRACON (SMA)
06:19AM 35.2147 -80.7956 44° Northeast 259 298 7,700 -1,200 Descending FAA TRACON SMA TRACON (SMA)
06:20AM 35.2289 -80.7756 49° Northeast 254 292 7,300 -1,500 Descending FAA TRACON SMA TRACON (SMA)
06:20AM 35.2461 -80.7503 50° Northeast 253 291 6,700 -1,500 Descending FAA TRACON SMA TRACON (SMA)
06:20AM 35.2600 -80.7300 50° Northeast 252 290 6,300 -1,260 Descending FAA TRACON SMA TRACON (SMA)
06:21AM 35.2739 -80.7106 49° Northeast 249 287 5,900 -1,200 Descending FAA TRACON SMA TRACON (SMA)
06:21AM 35.2961 -80.7025 16° North 234 269 5,500 -1,320 Descending FAA TRACON SMA TRACON (SMA)
06:21AM 35.3136 -80.7128 334° Northwest 215 247 5,000 -1,380 Descending FAA TRACON SMA TRACON (SMA)
06:22AM 35.3228 -80.7369 295° West 211 243 4,600 -1,080 Descending FAA TRACON SMA TRACON (SMA)
06:22AM 35.3192 -80.7581 258° West 207 238 4,300 -960 Descending FAA TRACON SMA TRACON (SMA)
06:22AM 35.3133 -80.7772 250° West 193 222 4,000 -780 Descending FAA TRACON SMA TRACON (SMA)
06:23AM 35.3078 -80.7983 252° West 185 213 3,800 -780 Descending FAA TRACON SMA TRACON (SMA)
06:23AM 35.3014 -80.8144 244° Southwest 158 182 3,500 -1,200 Descending FAA TRACON SMA TRACON (SMA)
06:23AM 35.2958 -80.8281 243° Southwest 150 173 3,000 -1,500 Descending FAA TRACON SMA TRACON (SMA)